Niki S — 2IPS4 — position and weather

sailwx.info

Track history (hours):
 
Tides and Currents Weather Stations Pressure Air Temp Water Temp Dewpoint Dewpoint Depression Visibility Wind Speed Wind Dir Waves Ship Positions

Niki S

Last reported at 2017-Oct-05 12:21 UTC. Time now 2017-Oct-18 09:46 UTC.
Position N 37°53' E 023°44'.
Warning: this ship's position is 12 days out of date.

Length 17 m.

Type: Pleasure craft. MMSI: 235111761.

Date/timePositionNaut miles runAvg speedWind from/ knotsBaromVisibWave heightAir tempDewpointWater temp
2017-Oct-05 12:21N 37°53' E 023°44'0 0.3
2017-Oct-05 11:56N 37°53' E 023°44'0 0.6
2017-Oct-05 11:26N 37°53' E 023°43'3 6.1
2017-Oct-05 11:00N 37°51' E 023°41'76 1.5
2017-Oct-03 09:40N 37°05' E 024°58'1 7.5
2017-Oct-03 09:30N 37°05' E 024°60'3 6.9
2017-Oct-03 09:00N 37°05' E 025°04'2 3.9
2017-Oct-03 08:25N 37°03' E 025°06'1 1.4
2017-Oct-03 07:58N 37°02' E 025°05'0 0.0
2017-Oct-02 11:42N 37°02' E 025°05'  
2017-Sep-28 16:08N 37°10' E 025°48'1 7.6
2017-Sep-28 15:59N 37°11' E 025°47'24 7.4
2017-Sep-28 12:40N 37°24' E 025°21'0 1.4
2017-Sep-28 12:30N 37°24' E 025°21'  
Track history (hours):
 
Tides and Currents Weather Stations Pressure Air Temp Water Temp Dewpoint Dewpoint Depression Visibility Wind Speed Wind Dir Waves Ship Positions

Niki S

Last reported at 2017-Oct-05 12:21 UTC. Time now 2017-Oct-18 09:46 UTC.
Position N 37°53' E 023°44'.
Warning: this ship's position is 12 days out of date.

Length 17 m.

Type: Pleasure craft. MMSI: 235111761.

Date/timePositionNaut miles runAvg speedWind from/ knotsBaromVisibWave heightAir tempDewpointWater temp
2017-Oct-05 12:21N 37°53' E 023°44'0 0.3
2017-Oct-05 11:56N 37°53' E 023°44'0 0.6
2017-Oct-05 11:26N 37°53' E 023°43'3 6.1
2017-Oct-05 11:00N 37°51' E 023°41'76 1.5
2017-Oct-03 09:40N 37°05' E 024°58'1 7.5
2017-Oct-03 09:30N 37°05' E 024°60'3 6.9
2017-Oct-03 09:00N 37°05' E 025°04'2 3.9
2017-Oct-03 08:25N 37°03' E 025°06'1 1.4
2017-Oct-03 07:58N 37°02' E 025°05'0 0.0
2017-Oct-02 11:42N 37°02' E 025°05'  
2017-Sep-28 16:08N 37°10' E 025°48'1 7.6
2017-Sep-28 15:59N 37°11' E 025°47'24 7.4
2017-Sep-28 12:40N 37°24' E 025°21'0 1.4
2017-Sep-28 12:30N 37°24' E 025°21'  

Dump ship's entire track history